Time;durP1;ratioP1;P1;durP2;ratioP2;P2;SDS_P1;SDS_P2;PMS_P1;PMS_P2;Temp;Humidity;BMP_temperature;BMP_pressure;BME280_temperature;BME280_humidity;BME280_pressure;Samples;Min_cycle;Max_cycle;Signal;HPM_P1;HPM_P2
2024/03/17 00:00:50;;;;;;;22.20;10.00;;;7.70;99.90;;;;;;5088794;28;20036;-65
2024/03/17 00:03:16;;;;;;;26.47;9.97;;;7.60;99.90;;;;;;5089507;28;20365;-66
2024/03/17 00:05:41;;;;;;;21.60;7.72;;;7.60;99.90;;;;;;5088307;28;20107;-66
2024/03/17 00:08:08;;;;;;;19.37;8.93;;;7.60;99.90;;;;;;5088554;28;20028;-66
2024/03/17 00:10:34;;;;;;;22.48;8.00;;;7.50;99.90;;;;;;5088498;28;20032;-67
2024/03/17 00:13:00;;;;;;;22.45;8.77;;;7.60;99.90;;;;;;5087346;28;20484;-65
2024/03/17 00:15:26;;;;;;;20.20;7.38;;;7.50;99.90;;;;;;5088093;28;20039;-65
2024/03/17 00:17:51;;;;;;;16.80;8.70;;;7.50;99.90;;;;;;5088359;28;20036;-66
2024/03/17 00:20:20;;;;;;;24.63;8.37;;;7.50;99.90;;;;;;5088060;28;20301;-66
2024/03/17 00:22:51;;;;;;;16.45;7.18;;;7.50;99.90;;;;;;5089012;28;20107;-67
2024/03/17 00:25:17;;;;;;;18.50;6.75;;;7.50;99.90;;;;;;5088733;28;20117;-65
2024/03/17 00:27:44;;;;;;;;;;;7.60;99.90;;;;;;5088982;28;20020;-65
2024/03/17 00:30:15;;;;;;;19.73;7.55;;;7.50;99.90;;;;;;5086865;28;20261;-67
2024/03/17 00:32:41;;;;;;;19.75;7.47;;;7.50;99.90;;;;;;5088867;28;20492;-69
2024/03/17 00:35:08;;;;;;;17.70;7.60;;;7.50;99.90;;;;;;5089048;28;20111;-66
2024/03/17 00:37:34;;;;;;;19.83;7.75;;;7.50;99.90;;;;;;5087568;28;20032;-66
2024/03/17 00:40:03;;;;;;;24.50;8.30;;;7.60;99.90;;;;;;5088066;28;20113;-66
2024/03/17 00:42:29;;;;;;;21.10;7.22;;;7.60;99.90;;;;;;5087544;28;20545;-66
2024/03/17 00:44:56;;;;;;;20.55;6.90;;;7.60;99.90;;;;;;5088290;28;20032;-67
2024/03/17 00:47:21;;;;;;;;;;;7.50;99.90;;;;;;5088446;28;20051;-66
2024/03/17 00:49:49;;;;;;;21.05;7.05;;;7.50;99.90;;;;;;5088227;28;20367;-66
2024/03/17 00:52:16;;;;;;;21.88;7.15;;;7.50;99.90;;;;;;5087170;28;20729;-66
2024/03/17 00:54:41;;;;;;;20.65;7.53;;;7.50;99.90;;;;;;5088093;28;20052;-68
2024/03/17 00:57:07;;;;;;;17.37;7.80;;;7.50;99.90;;;;;;5088156;28;20060;-66
2024/03/17 00:59:33;;;;;;;23.27;8.77;;;7.40;99.90;;;;;;5087931;28;20105;-65
2024/03/17 01:01:58;;;;;;;17.10;6.82;;;7.50;99.90;;;;;;5087638;28;20058;-65
2024/03/17 01:04:24;;;;;;;18.70;7.47;;;7.50;99.90;;;;;;5087386;28;20032;-67
2024/03/17 01:06:50;;;;;;;18.73;6.93;;;7.50;99.90;;;;;;5087484;28;20552;-66
2024/03/17 01:09:15;;;;;;;23.00;7.13;;;7.50;99.90;;;;;;5087367;28;20020;-65
2024/03/17 01:11:41;;;;;;;19.33;7.70;;;7.50;99.90;;;;;;5087518;28;20028;-67
2024/03/17 01:14:07;;;;;;;18.90;7.00;;;7.40;99.90;;;;;;5087400;28;20032;-68
2024/03/17 01:16:33;;;;;;;13.30;6.35;;;7.40;99.90;;;;;;5086579;28;20110;-65
2024/03/17 01:18:59;;;;;;;18.88;7.18;;;7.40;99.90;;;;;;5087319;28;20082;-73
2024/03/17 01:21:25;;;;;;;19.80;7.60;;;7.40;99.90;;;;;;5087168;28;20059;-65
2024/03/17 01:23:50;;;;;;;17.37;7.20;;;7.40;99.90;;;;;;5087496;28;20484;-66
2024/03/17 01:26:16;;;;;;;16.35;6.63;;;7.50;99.90;;;;;;5087783;28;20845;-66
2024/03/17 01:28:42;;;;;;;18.90;7.10;;;7.40;99.90;;;;;;5086703;28;20024;-66
2024/03/17 01:31:09;;;;;;;21.02;7.55;;;7.40;99.90;;;;;;5086794;28;20374;-65
2024/03/17 01:33:35;;;;;;;23.95;6.95;;;7.40;99.90;;;;;;5086959;28;20500;-65
2024/03/17 01:36:00;;;;;;;19.38;6.93;;;7.40;99.90;;;;;;5085557;28;20032;-65
2024/03/17 01:38:26;;;;;;;23.67;7.10;;;7.40;99.90;;;;;;5086559;28;20160;-65
2024/03/17 01:40:52;;;;;;;22.23;6.77;;;7.40;99.90;;;;;;5087126;28;20058;-65
2024/03/17 01:43:17;;;;;;;21.53;6.60;;;7.30;99.90;;;;;;5086652;28;20027;-65
2024/03/17 01:45:43;;;;;;;19.33;7.67;;;7.30;99.90;;;;;;5087046;28;20069;-65
2024/03/17 01:48:19;;;;;;;22.23;7.53;;;7.30;99.90;;;;;;5086202;28;20029;-65
2024/03/17 01:50:48;;;;;;;17.98;6.90;;;7.30;99.90;;;;;;5087471;28;20657;-65
2024/03/17 01:53:14;;;;;;;17.83;6.78;;;7.30;99.90;;;;;;5086814;28;20028;-68
2024/03/17 01:55:42;;;;;;;20.52;7.00;;;7.30;99.90;;;;;;5086581;28;20063;-66
2024/03/17 01:58:10;;;;;;;20.65;7.13;;;7.20;99.90;;;;;;5086502;28;20624;-69
2024/03/17 02:00:36;;;;;;;14.77;6.50;;;7.30;99.90;;;;;;5086541;28;20096;-65
2024/03/17 02:03:06;;;;;;;21.30;7.95;;;7.30;99.90;;;;;;5087006;28;20056;-65
2024/03/17 02:05:33;;;;;;;17.08;7.03;;;7.20;99.90;;;;;;5086201;28;20024;-65
2024/03/17 02:07:59;;;;;;;16.35;7.28;;;7.30;99.90;;;;;;5086806;28;20114;-65
2024/03/17 02:10:25;;;;;;;20.40;6.88;;;7.30;99.90;;;;;;5087376;28;20099;-65
2024/03/17 02:12:51;;;;;;;18.25;6.82;;;7.40;99.90;;;;;;5082604;28;20488;-66
2024/03/17 02:15:16;;;;;;;25.58;7.03;;;7.30;99.90;;;;;;5068713;28;20025;-66
2024/03/17 02:17:42;;;;;;;21.00;8.63;;;7.30;99.90;;;;;;5067399;28;20047;-68
2024/03/17 02:20:08;;;;;;;18.03;7.43;;;7.40;99.90;;;;;;5067449;28;20412;-65
2024/03/17 02:22:35;;;;;;;19.80;7.55;;;7.40;99.90;;;;;;5065465;28;20028;-66
2024/03/17 02:25:02;;;;;;;18.65;7.63;;;7.30;99.90;;;;;;5067034;28;20020;-66
2024/03/17 02:27:27;;;;;;;24.00;8.55;;;7.40;99.90;;;;;;5067446;28;20108;-65
2024/03/17 02:29:53;;;;;;;19.07;8.30;;;7.40;99.90;;;;;;5071044;28;20162;-65
2024/03/17 02:32:22;;;;;;;24.57;8.57;;;7.50;99.90;;;;;;5071110;28;20028;-66
2024/03/17 02:34:47;;;;;;;23.75;8.18;;;7.50;99.90;;;;;;5070986;28;20021;-67
2024/03/17 02:37:13;;;;;;;25.70;8.27;;;7.40;99.90;;;;;;5070106;28;20032;-66
2024/03/17 02:39:39;;;;;;;17.10;6.80;;;7.40;99.90;;;;;;5070456;28;20201;-65
2024/03/17 02:42:06;;;;;;;23.17;7.32;;;7.40;99.90;;;;;;5070493;28;20085;-66
2024/03/17 02:44:34;;;;;;;17.90;7.07;;;7.40;99.90;;;;;;5070421;28;20021;-66
2024/03/17 02:47:00;;;;;;;17.70;7.03;;;7.40;99.90;;;;;;5070482;28;20060;-71
2024/03/17 02:49:27;;;;;;;17.90;7.70;;;7.40;99.90;;;;;;5070432;28;20024;-68
2024/03/17 02:51:54;;;;;;;;;;;7.40;99.90;;;;;;5070948;28;20035;-65
2024/03/17 02:54:20;;;;;;;15.57;6.18;;;7.40;99.90;;;;;;5086984;28;19958;-66
2024/03/17 02:56:46;;;;;;;16.92;7.18;;;7.50;99.90;;;;;;5090804;28;20021;-66
2024/03/17 02:59:12;;;;;;;23.95;8.40;;;7.50;99.90;;;;;;5089208;28;20031;-65
2024/03/17 03:01:38;;;;;;;26.08;7.35;;;7.50;99.90;;;;;;5090656;28;20024;-67
2024/03/17 03:04:03;;;;;;;19.67;6.50;;;7.60;99.90;;;;;;5090778;28;20036;-66
2024/03/17 03:06:29;;;;;;;24.73;7.53;;;7.60;99.90;;;;;;5090182;28;20404;-65
2024/03/17 03:08:54;;;;;;;14.87;6.17;;;7.60;99.90;;;;;;5090368;28;20028;-66
2024/03/17 03:11:20;;;;;;;16.17;6.50;;;7.70;99.90;;;;;;5090092;28;20039;-66
2024/03/17 03:13:46;;;;;;;22.07;6.53;;;7.70;99.90;;;;;;5090324;28;20030;-70
2024/03/17 03:16:13;;;;;;;22.55;6.78;;;7.80;99.90;;;;;;5090293;28;20753;-69
2024/03/17 03:18:40;;;;;;;16.58;6.30;;;7.80;99.90;;;;;;5089461;28;20119;-66
2024/03/17 03:21:06;;;;;;;17.25;7.03;;;7.80;99.90;;;;;;5089611;28;20035;-67
2024/03/17 03:23:32;;;;;;;18.63;7.70;;;7.70;99.90;;;;;;5089693;28;20107;-67
2024/03/17 03:25:59;;;;;;;16.83;6.30;;;7.70;99.90;;;;;;5089998;28;20400;-65
2024/03/17 03:28:28;;;;;;;16.50;6.85;;;7.70;99.90;;;;;;5089448;28;20020;-66
2024/03/17 03:30:54;;;;;;;17.30;6.32;;;7.70;99.90;;;;;;5089311;28;20077;-66
2024/03/17 03:33:20;;;;;;;14.67;6.33;;;7.70;99.90;;;;;;5088195;28;20498;-67
2024/03/17 03:35:46;;;;;;;14.90;5.65;;;7.70;99.90;;;;;;5089307;28;20028;-65
2024/03/17 03:38:13;;;;;;;20.58;6.72;;;7.80;99.90;;;;;;5088996;28;20069;-65
2024/03/17 03:40:39;;;;;;;13.63;5.30;;;7.80;99.90;;;;;;5088623;28;20044;-65
2024/03/17 03:43:05;;;;;;;18.60;6.10;;;7.80;99.90;;;;;;5089045;28;20122;-65
2024/03/17 03:45:31;;;;;;;11.50;5.67;;;7.70;99.90;;;;;;5104620;28;20144;-65
2024/03/17 03:47:56;;;;;;;23.23;6.33;;;7.60;99.90;;;;;;5089027;28;20031;-65
2024/03/17 03:50:23;;;;;;;17.52;6.28;;;7.70;99.90;;;;;;5088700;28;20154;-65
2024/03/17 03:52:49;;;;;;;15.00;6.15;;;7.70;99.90;;;;;;5089701;28;20645;-65
2024/03/17 03:55:17;;;;;;;20.23;6.30;;;7.80;99.90;;;;;;5088258;28;20047;-65
2024/03/17 03:57:46;;;;;;;16.40;6.55;;;7.90;99.90;;;;;;5088996;28;20467;-69
2024/03/17 04:00:12;;;;;;;12.73;5.55;;;7.90;99.90;;;;;;5088986;28;20040;-66
2024/03/17 04:02:39;;;;;;;15.18;5.68;;;7.90;99.90;;;;;;5088738;28;20565;-66
2024/03/17 04:05:05;;;;;;;15.75;6.50;;;7.90;99.90;;;;;;5088831;28;20028;-64
2024/03/17 04:07:31;;;;;;;18.65;7.25;;;7.90;99.90;;;;;;5088416;28;20509;-69
2024/03/17 04:09:56;;;;;;;17.07;6.70;;;7.90;99.90;;;;;;5088124;28;20032;-71
2024/03/17 04:12:24;;;;;;;18.20;5.77;;;7.80;99.90;;;;;;5082002;28;20274;-66
2024/03/17 04:14:53;;;;;;;14.07;5.40;;;7.90;99.90;;;;;;5075288;28;20039;-68
2024/03/17 04:17:21;;;;;;;14.00;6.28;;;7.80;99.90;;;;;;5077037;28;20039;-67
2024/03/17 04:19:50;;;;;;;13.57;5.20;;;7.80;99.90;;;;;;5075910;28;20530;-66
2024/03/17 04:22:17;;;;;;;13.40;5.32;;;7.70;99.90;;;;;;5080162;28;20089;-66
2024/03/17 04:24:47;;;;;;;16.90;6.68;;;7.80;99.90;;;;;;5069514;28;20060;-67
2024/03/17 04:27:13;;;;;;;15.30;6.32;;;7.80;99.90;;;;;;5077119;28;20044;-66
2024/03/17 04:29:39;;;;;;;21.27;7.27;;;7.80;99.90;;;;;;5077949;28;20079;-66
2024/03/17 04:32:05;;;;;;;17.20;6.45;;;7.80;99.90;;;;;;5078128;28;20263;-66
2024/03/17 04:34:31;;;;;;;20.77;7.55;;;7.80;99.90;;;;;;5074543;28;20113;-69
2024/03/17 04:36:57;;;;;;;18.83;6.10;;;7.80;99.90;;;;;;5075992;28;20098;-65
2024/03/17 04:39:23;;;;;;;19.17;6.00;;;7.90;99.90;;;;;;5075178;28;20045;-66
2024/03/17 04:41:49;;;;;;;17.95;7.03;;;7.90;99.90;;;;;;5076855;28;20028;-68
2024/03/17 04:44:15;;;;;;;17.27;5.78;;;7.80;99.90;;;;;;5076580;28;20040;-70
2024/03/17 04:46:41;;;;;;;18.48;7.45;;;7.70;99.90;;;;;;5077031;28;20078;-67
2024/03/17 04:49:08;;;;;;;21.57;6.20;;;7.70;99.90;;;;;;5075203;28;20032;-66
2024/03/17 04:51:33;;;;;;;;;;;7.80;99.90;;;;;;5080943;28;20036;-64
2024/03/17 04:53:59;;;;;;;16.77;6.35;;;7.70;99.90;;;;;;5077809;28;19916;-67
2024/03/17 04:56:25;;;;;;;18.00;5.50;;;7.70;99.90;;;;;;5075767;28;20352;-66
2024/03/17 04:58:51;;;;;;;16.27;5.80;;;7.70;99.90;;;;;;5076862;28;20507;-66
2024/03/17 05:01:16;;;;;;;17.02;6.38;;;7.70;99.90;;;;;;5076436;28;20028;-66
2024/03/17 05:03:42;;;;;;;23.37;6.67;;;7.70;99.90;;;;;;5076540;28;20513;-66
2024/03/17 05:06:08;;;;;;;14.80;7.30;;;7.70;99.90;;;;;;5077575;28;20028;-72
2024/03/17 05:08:36;;;;;;;19.00;6.83;;;7.70;99.90;;;;;;5078067;28;20528;-66
2024/03/17 05:11:07;;;;;;;12.93;6.43;;;7.70;99.90;;;;;;5069657;28;20017;-65
2024/03/17 05:13:34;;;;;;;18.17;6.22;;;7.70;99.90;;;;;;5069411;28;20097;-68
2024/03/17 05:16:01;;;;;;;16.70;6.38;;;7.80;99.90;;;;;;5069390;28;20028;-65
2024/03/17 05:18:27;;;;;;;17.20;7.13;;;7.70;99.90;;;;;;5074947;28;20512;-65
2024/03/17 05:21:03;;;;;;;16.55;6.35;;;7.80;99.90;;;;;;5069666;28;20158;-65
2024/03/17 05:23:30;;;;;;;16.38;6.10;;;7.80;99.90;;;;;;5074168;28;20036;-65
2024/03/17 05:25:57;;;;;;;17.48;6.45;;;7.80;99.90;;;;;;5074732;28;20161;-65
2024/03/17 05:28:28;;;;;;;16.23;6.00;;;7.80;99.90;;;;;;5078103;28;20043;-66
2024/03/17 05:30:54;;;;;;;22.92;6.22;;;7.80;99.90;;;;;;5076568;28;20032;-66
2024/03/17 05:33:23;;;;;;;12.27;5.75;;;7.80;99.90;;;;;;5077346;28;20064;-66
2024/03/17 05:36:02;;;;;;;17.05;6.07;;;7.70;99.90;;;;;;5071620;28;20036;-67
2024/03/17 05:38:29;;;;;;;15.60;5.32;;;7.80;99.90;;;;;;5072904;28;20043;-66
2024/03/17 05:41:02;;;;;;;20.67;7.13;;;7.80;99.90;;;;;;5080166;28;20100;-65
2024/03/17 05:43:29;;;;;;;14.25;5.50;;;7.90;99.90;;;;;;5074857;28;20036;-68
2024/03/17 05:45:59;;;;;;;20.00;5.30;;;7.90;99.90;;;;;;5078765;28;20062;-65
2024/03/17 05:48:25;;;;;;;15.85;4.95;;;7.90;99.90;;;;;;5074664;28;20118;-65
2024/03/17 05:50:51;;;;;;;14.23;5.03;;;8.00;99.90;;;;;;5072544;28;20070;-67
2024/03/17 05:53:18;;;;;;;14.90;5.67;;;8.00;99.90;;;;;;5075461;28;20036;-66
2024/03/17 05:55:44;;;;;;;17.90;5.13;;;8.00;99.90;;;;;;5079677;28;20029;-66
2024/03/17 05:58:10;;;;;;;;;;;8.00;99.90;;;;;;5075715;28;20048;-65
2024/03/17 06:00:37;;;;;;;15.95;5.88;;;8.00;99.90;;;;;;5071452;28;19962;-65
2024/03/17 06:03:04;;;;;;;17.13;6.85;;;8.00;99.90;;;;;;5073565;28;20086;-65
2024/03/17 06:05:34;;;;;;;22.30;5.75;;;8.00;99.90;;;;;;5074210;28;20063;-65
2024/03/17 06:08:04;;;;;;;14.00;5.85;;;7.90;99.90;;;;;;5073969;28;20032;-66
2024/03/17 06:10:34;;;;;;;15.98;5.45;;;8.00;99.90;;;;;;5073599;28;20048;-65
2024/03/17 06:13:00;;;;;;;13.63;5.75;;;8.00;99.90;;;;;;5070334;28;20059;-66
2024/03/17 06:15:26;;;;;;;16.38;5.78;;;8.10;99.90;;;;;;5074691;28;20524;-66
2024/03/17 06:17:53;;;;;;;16.15;6.32;;;8.10;99.90;;;;;;5079227;28;20046;-68
2024/03/17 06:20:20;;;;;;;17.63;5.88;;;8.10;99.90;;;;;;5072794;28;20123;-66
2024/03/17 06:22:45;;;;;;;17.63;6.80;;;8.10;99.90;;;;;;5076284;28;20034;-66
2024/03/17 06:25:11;;;;;;;16.73;6.90;;;8.00;99.90;;;;;;5076594;28;20037;-66
2024/03/17 06:27:37;;;;;;;20.23;6.80;;;8.00;99.90;;;;;;5074248;28;20034;-65
2024/03/17 06:30:03;;;;;;;15.80;8.03;;;8.00;99.90;;;;;;5073713;28;20415;-66
2024/03/17 06:32:33;;;;;;;13.68;7.13;;;8.00;99.90;;;;;;5078471;28;20478;-66
2024/03/17 06:35:25;;;;;;;22.27;7.45;;;8.10;99.90;;;;;;5072674;28;20468;-65
2024/03/17 06:37:52;;;;;;;19.67;7.05;;;8.10;99.90;;;;;;5073413;28;20024;-65
2024/03/17 06:40:18;;;;;;;14.50;7.03;;;8.10;99.90;;;;;;5076343;28;20055;-66
2024/03/17 06:42:44;;;;;;;16.48;7.63;;;8.00;99.90;;;;;;5072044;28;20041;-65
2024/03/17 06:45:09;;;;;;;24.23;9.07;;;8.00;99.90;;;;;;5078051;28;20040;-66
2024/03/17 06:47:39;;;;;;;23.00;8.88;;;8.10;99.90;;;;;;5074748;28;20054;-66
2024/03/17 06:50:09;;;;;;;26.00;9.43;;;8.20;99.90;;;;;;5072654;28;20054;-72
2024/03/17 06:52:35;;;;;;;20.95;7.45;;;8.30;99.90;;;;;;5074878;28;20033;-66
2024/03/17 06:55:01;;;;;;;18.02;6.45;;;8.40;99.90;;;;;;5071988;28;20046;-66
2024/03/17 06:57:27;;;;;;;16.63;5.93;;;8.40;99.90;;;;;;5075625;28;20028;-74
2024/03/17 06:59:52;;;;;;;15.43;6.68;;;8.50;99.90;;;;;;5073426;28;20072;-66
2024/03/17 07:02:19;;;;;;;20.77;7.53;;;8.60;99.90;;;;;;5075706;28;20124;-65
2024/03/17 07:04:46;;;;;;;20.17;6.40;;;8.60;99.90;;;;;;5073298;28;20071;-66
2024/03/17 07:07:12;;;;;;;22.55;6.53;;;8.60;99.90;;;;;;5073159;28;20025;-66
2024/03/17 07:09:39;;;;;;;18.67;6.05;;;8.70;99.90;;;;;;5072654;28;20024;-67
2024/03/17 07:12:09;;;;;;;17.92;6.30;;;8.80;99.90;;;;;;5075937;28;20495;-66
2024/03/17 07:14:35;;;;;;;12.30;4.60;;;8.80;99.90;;;;;;5074985;28;20059;-66
2024/03/17 07:17:01;;;;;;;20.58;5.00;;;8.90;99.90;;;;;;5077780;28;20025;-66
2024/03/17 07:19:27;;;;;;;8.53;4.40;;;9.00;99.90;;;;;;5079704;28;20032;-66
2024/03/17 07:21:52;;;;;;;16.20;5.23;;;9.20;99.90;;;;;;5077268;28;20099;-66
2024/03/17 07:24:18;;;;;;;17.27;5.10;;;9.20;99.90;;;;;;5070112;28;20056;-65
2024/03/17 07:26:44;;;;;;;20.25;5.25;;;9.40;99.90;;;;;;5075594;28;20028;-65
2024/03/17 07:29:10;;;;;;;10.50;4.53;;;9.50;99.90;;;;;;5074820;28;20074;-66
2024/03/17 07:31:36;;;;;;;14.35;4.80;;;9.60;99.90;;;;;;5083079;28;20028;-65
2024/03/17 07:34:02;;;;;;;15.23;5.03;;;9.70;99.90;;;;;;5083155;28;20089;-68
2024/03/17 07:36:28;;;;;;;17.98;5.10;;;9.80;99.90;;;;;;5084079;28;20035;-65
2024/03/17 07:38:53;;;;;;;15.83;4.77;;;9.80;99.90;;;;;;5080548;28;20726;-65
2024/03/17 07:41:24;;;;;;;13.97;5.37;;;9.80;99.90;;;;;;5083057;28;20040;-67
2024/03/17 07:43:49;;;;;;;12.40;4.75;;;9.90;99.90;;;;;;5086180;28;20037;-65
2024/03/17 07:46:15;;;;;;;10.82;4.70;;;9.90;99.90;;;;;;5085846;28;20028;-65
2024/03/17 07:48:42;;;;;;;14.93;4.50;;;10.00;99.90;;;;;;5085521;28;20493;-66
2024/03/17 07:51:11;;;;;;;20.23;5.32;;;10.10;99.90;;;;;;5082902;28;20515;-65
2024/03/17 07:53:38;;;;;;;14.45;4.65;;;10.10;99.90;;;;;;5085680;28;20071;-65
2024/03/17 07:56:11;;;;;;;13.45;4.88;;;10.30;99.90;;;;;;5078600;28;20036;-65
2024/03/17 07:58:39;;;;;;;11.07;4.30;;;10.30;99.90;;;;;;5078469;28;20107;-65
2024/03/17 08:01:10;;;;;;;10.43;4.40;;;10.30;99.90;;;;;;5077299;28;20039;-65
2024/03/17 08:03:45;;;;;;;12.40;3.92;;;10.40;99.90;;;;;;5077523;28;20039;-65
2024/03/17 08:06:10;;;;;;;8.75;3.58;;;10.50;99.90;;;;;;5078426;28;20020;-65
2024/03/17 08:08:37;;;;;;;11.77;4.43;;;10.60;99.90;;;;;;5077583;28;20040;-65
2024/03/17 08:11:03;;;;;;;16.90;4.07;;;10.60;99.90;;;;;;5074122;28;20494;-65
2024/03/17 08:13:34;;;;;;;13.30;4.43;;;10.60;99.90;;;;;;5076738;28;20032;-65
2024/03/17 08:16:02;;;;;;;11.75;3.60;;;10.60;99.90;;;;;;5077120;28;20028;-66
2024/03/17 08:18:29;;;;;;;14.65;4.70;;;10.70;99.90;;;;;;5071088;28;20028;-73
2024/03/17 08:20:54;;;;;;;13.20;4.25;;;10.70;99.90;;;;;;5079139;28;20515;-74
2024/03/17 08:23:20;;;;;;;10.53;3.50;;;10.80;99.90;;;;;;5079851;28;20107;-73
2024/03/17 08:25:57;;;;;;;13.95;3.80;;;11.00;99.90;;;;;;5077278;28;20434;-70
2024/03/17 08:28:23;;;;;;;14.27;3.92;;;11.20;99.90;;;;;;5077171;28;20035;-67
2024/03/17 08:30:59;;;;;;;;;;;11.40;99.90;;;;;;5077774;28;20032;-73
2024/03/17 08:33:25;;;;;;;13.45;3.30;;;11.50;99.90;;;;;;5076945;28;19912;-72
2024/03/17 08:35:59;;;;;;;15.57;4.00;;;11.70;99.90;;;;;;5077194;28;20028;-74
2024/03/17 08:38:27;;;;;;;15.15;4.28;;;12.20;99.90;;;;;;5076948;28;20496;-75
2024/03/17 08:40:53;;;;;;;18.05;4.57;;;12.50;99.90;;;;;;5074898;28;20041;-70
2024/03/17 08:43:20;;;;;;;10.10;3.65;;;12.90;99.90;;;;;;5078529;28;20055;-74
2024/03/17 08:45:59;;;;;;;13.18;4.47;;;13.30;99.20;;;;;;5070117;28;20167;-72
2024/03/17 08:48:26;;;;;;;15.10;4.53;;;14.30;95.30;;;;;;5077218;28;20171;-75
2024/03/17 08:50:53;;;;;;;16.42;4.38;;;13.90;95.60;;;;;;5080319;28;20470;-76
2024/03/17 08:53:20;;;;;;;7.80;2.70;;;14.10;95.50;;;;;;5082191;28;20024;-66
2024/03/17 08:55:45;;;;;;;;;;;14.30;93.30;;;;;;5077186;28;20059;-66
2024/03/17 08:58:11;;;;;;;9.35;3.13;;;14.70;92.10;;;;;;5076736;28;19943;-65
2024/03/17 09:00:36;;;;;;;8.47;3.00;;;15.90;91.30;;;;;;5076648;28;20093;-67
2024/03/17 09:03:03;;;;;;;7.27;2.50;;;17.10;84.10;;;;;;5078104;28;20473;-67
2024/03/17 09:05:28;;;;;;;9.13;2.60;;;18.30;78.50;;;;;;5078369;28;20383;-67
2024/03/17 09:07:55;;;;;;;6.43;3.10;;;18.20;75.40;;;;;;5076280;28;20042;-67
2024/03/17 09:10:21;;;;;;;9.40;2.75;;;19.10;75.00;;;;;;5076904;28;20029;-67
2024/03/17 09:12:47;;;;;;;9.98;2.58;;;18.40;71.70;;;;;;5067618;28;20044;-68
2024/03/17 09:15:13;;;;;;;7.70;2.03;;;18.40;73.50;;;;;;5070445;28;20036;-67
2024/03/17 09:17:39;;;;;;;7.18;2.63;;;18.90;73.30;;;;;;5076061;28;20571;-68
2024/03/17 09:20:11;;;;;;;8.52;2.63;;;19.00;71.50;;;;;;5073364;28;20032;-66
2024/03/17 09:22:38;;;;;;;7.50;2.38;;;19.40;72.10;;;;;;5069335;28;20404;-68
2024/03/17 09:25:07;;;;;;;8.70;3.08;;;20.00;67.50;;;;;;5070346;28;20043;-68
2024/03/17 09:27:33;;;;;;;13.93;3.47;;;21.00;68.40;;;;;;5075534;28;20025;-67
2024/03/17 09:30:00;;;;;;;12.15;2.50;;;21.30;66.80;;;;;;5076498;28;20040;-70
2024/03/17 09:32:26;;;;;;;10.13;2.70;;;21.10;65.30;;;;;;5080678;28;20058;-64
2024/03/17 09:34:51;;;;;;;7.80;2.47;;;20.10;66.70;;;;;;5078585;28;20438;-68
2024/03/17 09:37:17;;;;;;;11.25;3.15;;;19.90;67.40;;;;;;5071094;28;20063;-67
2024/03/17 09:39:46;;;;;;;9.17;2.33;;;19.20;67.80;;;;;;5072321;28;20040;-68
2024/03/17 09:42:19;;;;;;;10.13;2.97;;;18.10;71.50;;;;;;5081238;28;20767;-66
2024/03/17 09:44:49;;;;;;;7.35;2.60;;;18.30;72.20;;;;;;5082962;28;20406;-69
2024/03/17 09:47:21;;;;;;;5.82;2.30;;;19.10;70.50;;;;;;5081482;28;20103;-67
2024/03/17 09:49:48;;;;;;;7.93;2.60;;;20.60;68.70;;;;;;5077727;28;20111;-66
2024/03/17 09:52:25;;;;;;;10.32;2.50;;;22.80;63.70;;;;;;5077001;28;20803;-67
2024/03/17 09:55:06;;;;;;;8.18;2.88;;;22.70;62.80;;;;;;5083636;28;20027;-67
2024/03/17 09:57:34;;;;;;;8.25;2.90;;;22.80;62.00;;;;;;5071611;28;20405;-70
2024/03/17 10:00:12;;;;;;;10.18;2.88;;;23.70;61.80;;;;;;5082300;28;20036;-70
2024/03/17 10:02:43;;;;;;;10.80;2.60;;;23.80;62.80;;;;;;5073874;28;20024;-70
2024/03/17 10:05:20;;;;;;;5.65;2.50;;;22.50;60.80;;;;;;5074397;28;20496;-68
2024/03/17 10:07:46;;;;;;;6.32;2.47;;;21.90;61.80;;;;;;5078352;28;20094;-68
2024/03/17 10:10:12;;;;;;;8.23;2.40;;;22.40;66.10;;;;;;5077550;28;20546;-70
2024/03/17 10:12:38;;;;;;;9.13;2.40;;;23.30;64.20;;;;;;5069579;28;20274;-68
2024/03/17 10:15:04;;;;;;;5.82;2.60;;;22.60;59.40;;;;;;5075322;28;20408;-68
2024/03/17 10:17:31;;;;;;;;;;;21.80;61.30;;;;;;5077845;28;20032;-68
2024/03/17 10:20:17;;;;;;;8.83;3.60;;;20.90;64.00;;;;;;5077304;28;19922;-73
2024/03/17 10:22:59;;;;;;;18.60;2.80;;;20.60;64.30;;;;;;5075807;28;20070;-73
2024/03/17 10:25:26;;;;;;;13.27;2.95;;;20.10;65.80;;;;;;5079374;28;20028;-70
2024/03/17 10:27:52;;;;;;;5.85;2.30;;;19.80;67.60;;;;;;5081059;28;20032;-67
2024/03/17 10:30:19;;;;;;;8.63;2.90;;;19.60;67.50;;;;;;5076087;28;20032;-68
2024/03/17 10:32:46;;;;;;;8.05;2.40;;;19.40;69.70;;;;;;5076139;28;20028;-69
2024/03/17 10:35:30;;;;;;;;;;;19.30;71.00;;;;;;5076288;28;20119;-68
2024/03/17 10:38:06;;;;;;;8.48;2.30;;;18.90;70.00;;;;;;5075601;28;19909;-68
2024/03/17 10:40:33;;;;;;;9.73;2.67;;;18.60;73.70;;;;;;5071747;28;20036;-68
2024/03/17 10:43:00;;;;;;;7.40;2.20;;;18.30;71.70;;;;;;5074286;28;20395;-69
2024/03/17 10:45:30;;;;;;;4.75;2.40;;;18.50;74.40;;;;;;5069873;28;20025;-68
2024/03/17 10:48:00;;;;;;;8.38;2.40;;;18.30;71.50;;;;;;5077592;28;20104;-68
2024/03/17 10:50:30;;;;;;;5.82;2.25;;;18.40;75.30;;;;;;5081404;28;20400;-68
2024/03/17 10:53:02;;;;;;;10.93;3.05;;;18.30;74.90;;;;;;5081595;28;20110;-68
2024/03/17 10:55:37;;;;;;;7.53;2.95;;;18.40;74.90;;;;;;5083374;28;20133;-68
2024/03/17 10:58:04;;;;;;;10.32;2.80;;;18.50;74.70;;;;;;5081854;28;20027;-69
2024/03/17 11:00:31;;;;;;;7.45;2.58;;;18.70;74.40;;;;;;5079382;28;20052;-68
2024/03/17 11:02:58;;;;;;;5.80;2.55;;;18.70;72.80;;;;;;5079460;28;20024;-69
2024/03/17 11:05:29;;;;;;;12.20;2.58;;;18.70;72.40;;;;;;5079249;28;20031;-69
2024/03/17 11:07:57;;;;;;;11.63;2.60;;;18.80;74.00;;;;;;5078957;28;20029;-70
2024/03/17 11:10:23;;;;;;;9.10;3.00;;;18.90;72.10;;;;;;5076752;28;20564;-68
2024/03/17 11:12:50;;;;;;;;;;;18.70;72.80;;;;;;5076804;28;20043;-68
2024/03/17 11:15:33;;;;;;;11.98;3.28;;;18.60;73.60;;;;;;5078905;28;20257;-68
2024/03/17 11:18:11;;;;;;;9.00;2.65;;;18.70;73.20;;;;;;5078568;28;20785;-68
2024/03/17 11:20:39;;;;;;;9.85;2.65;;;18.50;74.20;;;;;;5078369;28;20453;-70
2024/03/17 11:23:05;;;;;;;7.57;2.45;;;18.50;75.60;;;;;;5078474;28;20025;-68
2024/03/17 11:25:38;;;;;;;7.90;3.17;;;18.30;74.50;;;;;;5079702;28;20068;-68
2024/03/17 11:28:11;;;;;;;6.93;3.10;;;18.50;74.80;;;;;;5080362;28;20067;-69
2024/03/17 11:30:54;;;;;;;4.75;2.10;;;18.40;75.20;;;;;;5072193;28;20036;-68
2024/03/17 11:33:38;;;;;;;8.60;3.03;;;18.50;75.40;;;;;;5076471;28;20043;-70
2024/03/17 11:36:24;;;;;;;8.48;2.42;;;18.90;75.60;;;;;;5080689;28;20028;-72
2024/03/17 11:38:56;;;;;;;11.65;3.67;;;18.80;76.30;;;;;;5076488;28;20033;-72
2024/03/17 11:41:43;;;;;;;10.10;2.75;;;19.00;75.90;;;;;;5078745;28;20062;-71
2024/03/17 11:44:21;;;;;;;7.32;2.78;;;18.60;75.90;;;;;;5083285;28;20074;-72
2024/03/17 11:47:03;;;;;;;9.63;3.13;;;18.40;77.40;;;;;;5082664;28;20036;-72
2024/03/17 11:49:44;;;;;;;7.28;2.60;;;18.20;76.60;;;;;;5083576;28;20040;-72
2024/03/17 11:52:14;;;;;;;7.72;2.88;;;18.10;77.90;;;;;;5078302;28;20059;-73
2024/03/17 11:54:44;;;;;;;7.43;2.47;;;18.10;78.00;;;;;;5079221;28;20044;-73
2024/03/17 11:57:22;;;;;;;11.10;3.50;;;18.10;79.30;;;;;;5081506;28;20028;-71
2024/03/17 11:59:48;;;;;;;15.68;3.22;;;18.00;77.80;;;;;;5092725;28;20478;-68
2024/03/17 12:02:27;;;;;;;18.92;4.13;;;18.10;79.00;;;;;;5076885;28;20032;-69
2024/03/17 12:04:56;;;;;;;6.50;2.80;;;17.90;79.50;;;;;;5081348;28;20028;-73
2024/03/17 12:07:27;;;;;;;6.63;2.70;;;17.80;78.60;;;;;;5080126;28;20043;-68
2024/03/17 12:09:53;;;;;;;10.20;3.00;;;17.70;79.50;;;;;;5078547;28;20028;-69
2024/03/17 12:12:35;;;;;;;8.07;2.70;;;17.50;77.40;;;;;;5071962;28;20031;-68
2024/03/17 12:15:18;;;;;;;7.93;3.20;;;17.30;78.50;;;;;;5079686;28;20035;-70
2024/03/17 12:17:44;;;;;;;10.02;2.60;;;17.50;78.70;;;;;;5079489;28;20067;-67
2024/03/17 12:20:20;;;;;;;4.43;2.50;;;17.50;79.50;;;;;;5079695;28;20072;-69
2024/03/17 12:22:47;;;;;;;10.10;2.97;;;17.60;77.60;;;;;;5079270;28;20020;-68
2024/03/17 12:25:20;;;;;;;5.32;2.40;;;17.80;78.20;;;;;;5078344;28;20044;-68
2024/03/17 12:27:48;;;;;;;6.63;2.22;;;17.80;77.80;;;;;;5081730;28;20113;-68
2024/03/17 12:30:15;;;;;;;5.28;2.38;;;17.90;77.80;;;;;;5071078;28;20060;-68
2024/03/17 12:32:40;;;;;;;;;;;17.90;77.90;;;;;;5074006;28;20054;-68
2024/03/17 12:35:13;;;;;;;6.60;2.38;;;17.90;76.90;;;;;;5077204;28;19908;-69
2024/03/17 12:37:39;;;;;;;6.80;2.25;;;17.80;77.80;;;;;;5077412;28;20024;-69
2024/03/17 12:40:06;;;;;;;7.60;3.03;;;18.00;77.50;;;;;;5079126;28;20064;-68
2024/03/17 12:42:32;;;;;;;9.07;2.13;;;18.20;76.90;;;;;;5076625;28;20032;-69
2024/03/17 12:45:00;;;;;;;7.95;2.28;;;18.20;76.60;;;;;;5075225;28;20032;-69
2024/03/17 12:47:28;;;;;;;5.50;2.22;;;18.50;75.60;;;;;;5076977;28;20028;-68
2024/03/17 12:49:55;;;;;;;8.77;2.58;;;18.50;76.40;;;;;;5076744;28;20092;-69
2024/03/17 12:52:25;;;;;;;11.07;2.70;;;18.50;75.00;;;;;;5077805;28;20036;-69